createdAt,value
2023-04-06T00:01:21.508Z,99.90
2023-04-06T00:03:48.762Z,99.90
2023-04-06T00:06:17.230Z,99.90
2023-04-06T00:08:45.550Z,99.90
2023-04-06T00:11:14.269Z,99.90
2023-04-06T00:13:41.854Z,99.90
2023-04-06T00:16:09.391Z,99.90
2023-04-06T00:18:36.687Z,99.90
2023-04-06T00:21:04.511Z,99.90
2023-04-06T00:23:31.745Z,99.90
2023-04-06T00:25:59.331Z,99.90
2023-04-06T00:28:27.207Z,99.90
2023-04-06T00:30:56.161Z,99.90
2023-04-06T00:33:24.146Z,99.90
2023-04-06T00:35:51.993Z,99.90
2023-04-06T00:38:19.256Z,99.90
2023-04-06T00:40:46.630Z,99.90
2023-04-06T00:43:14.130Z,99.90
2023-04-06T00:45:42.702Z,99.90
2023-04-06T00:48:10.824Z,99.90
2023-04-06T00:50:38.076Z,99.90
2023-04-06T00:53:05.306Z,99.90
2023-04-06T00:55:32.563Z,99.90
2023-04-06T00:58:02.036Z,99.90
2023-04-06T01:00:33.455Z,99.90
2023-04-06T01:03:02.670Z,99.90
2023-04-06T01:05:41.902Z,99.90
2023-04-06T01:08:17.519Z,99.90
2023-04-06T01:10:45.365Z,99.90
2023-04-06T01:13:31.122Z,99.90
2023-04-06T01:16:01.639Z,99.90
2023-04-06T01:18:38.198Z,99.90
2023-04-06T01:21:16.603Z,99.90
2023-04-06T01:23:58.544Z,99.90
2023-04-06T01:26:34.461Z,99.90
2023-04-06T01:29:05.966Z,99.90
2023-04-06T01:31:33.753Z,99.90
2023-04-06T01:34:01.350Z,99.90
2023-04-06T01:36:28.547Z,99.90
2023-04-06T01:39:04.883Z,99.90
2023-04-06T01:41:36.516Z,99.90
2023-04-06T01:44:04.018Z,99.90
2023-04-06T01:46:33.007Z,99.90
2023-04-06T01:49:01.864Z,99.90
2023-04-06T01:51:37.075Z,99.90
2023-04-06T01:54:07.417Z,99.90
2023-04-06T01:56:44.181Z,99.90
2023-04-06T01:59:23.473Z,99.90
2023-04-06T02:01:51.518Z,99.90
2023-04-06T02:04:19.555Z,99.90
2023-04-06T02:06:49.811Z,99.90
2023-04-06T02:09:21.909Z,99.90
2023-04-06T02:11:49.256Z,99.90
2023-04-06T02:14:16.506Z,99.90
2023-04-06T02:16:50.360Z,99.90
2023-04-06T02:19:17.881Z,99.90
2023-04-06T02:21:45.470Z,99.90
2023-04-06T02:24:12.758Z,99.90
2023-04-06T02:26:40.149Z,99.90
2023-04-06T02:29:08.259Z,99.90
2023-04-06T02:31:36.101Z,99.90
2023-04-06T02:34:04.393Z,99.90
2023-04-06T02:36:32.687Z,99.90
2023-04-06T02:38:59.874Z,99.90
2023-04-06T02:41:27.669Z,99.90
2023-04-06T02:43:55.924Z,99.90
2023-04-06T02:46:34.377Z,99.90
2023-04-06T02:49:01.717Z,99.90
2023-04-06T02:51:31.756Z,99.90
2023-04-06T02:54:08.879Z,99.90
2023-04-06T02:56:36.223Z,99.90
2023-04-06T02:59:04.158Z,99.90
2023-04-06T03:01:33.637Z,99.90
2023-04-06T03:04:04.623Z,99.90
2023-04-06T03:06:32.670Z,99.90
2023-04-06T03:09:09.210Z,99.90
2023-04-06T03:11:37.452Z,99.90
2023-04-06T03:14:04.703Z,99.90
2023-04-06T03:16:31.888Z,99.90
2023-04-06T03:19:00.939Z,99.90
2023-04-06T03:21:28.882Z,99.90
2023-04-06T03:23:56.306Z,99.90
2023-04-06T03:26:24.296Z,99.90
2023-04-06T03:28:53.410Z,99.90
2023-04-06T03:31:24.663Z,99.90
2023-04-06T03:34:00.211Z,99.90
2023-04-06T03:36:31.773Z,99.90
2023-04-06T03:38:59.553Z,99.90
2023-04-06T03:41:27.298Z,99.90
2023-04-06T03:44:01.810Z,99.90
2023-04-06T03:46:29.505Z,99.90
2023-04-06T03:48:59.543Z,99.90
2023-04-06T03:51:27.708Z,99.90
2023-04-06T03:53:54.919Z,99.90
2023-04-06T03:56:22.575Z,99.90
2023-04-06T03:58:52.752Z,99.90
2023-04-06T04:01:21.931Z,99.90
2023-04-06T04:03:51.557Z,99.90
2023-04-06T04:06:19.162Z,99.90
2023-04-06T04:08:46.942Z,99.90
2023-04-06T04:11:14.445Z,99.90
2023-04-06T04:13:41.655Z,99.90
2023-04-06T04:16:10.216Z,99.90
2023-04-06T04:18:37.568Z,99.90
2023-04-06T04:21:04.928Z,99.90
2023-04-06T04:23:32.320Z,99.90
2023-04-06T04:25:59.594Z,99.90
2023-04-06T04:28:26.805Z,99.90
2023-04-06T04:30:56.211Z,99.90
2023-04-06T04:33:24.214Z,99.90
2023-04-06T04:35:53.920Z,99.90
2023-04-06T04:38:23.450Z,99.90
2023-04-06T04:40:53.953Z,99.90
2023-04-06T04:43:22.571Z,99.90
2023-04-06T04:45:50.294Z,99.90
2023-04-06T04:48:40.665Z,99.90
2023-04-06T04:51:08.510Z,99.90
2023-04-06T04:54:03.346Z,99.90
2023-04-06T04:56:33.324Z,99.90
2023-04-06T04:59:20.321Z,99.90
2023-04-06T05:01:55.760Z,99.90
2023-04-06T05:04:29.404Z,99.90
2023-04-06T05:07:04.912Z,99.90
2023-04-06T05:09:33.443Z,99.90
2023-04-06T05:12:01.259Z,99.90
2023-04-06T05:14:29.358Z,99.90
2023-04-06T05:16:57.101Z,99.90
2023-04-06T05:19:26.901Z,99.90
2023-04-06T05:21:54.226Z,99.90
2023-04-06T05:24:21.482Z,99.90
2023-04-06T05:26:50.430Z,99.90
2023-04-06T05:29:23.549Z,99.90
2023-04-06T05:31:51.893Z,99.90
2023-04-06T05:34:19.135Z,99.90
2023-04-06T05:36:47.422Z,99.90
2023-04-06T05:39:24.498Z,99.90
2023-04-06T05:41:54.519Z,99.90
2023-04-06T05:44:32.199Z,99.90
2023-04-06T05:47:12.909Z,99.90
2023-04-06T05:49:43.324Z,99.90
2023-04-06T05:52:16.365Z,99.90
2023-04-06T05:54:47.154Z,99.90
2023-04-06T05:57:15.054Z,99.90
2023-04-06T05:59:42.884Z,99.90
2023-04-06T06:02:12.188Z,99.90
2023-04-06T06:04:43.149Z,99.90
2023-04-06T06:07:11.081Z,99.90
2023-04-06T06:09:44.379Z,99.90
2023-04-06T06:12:20.892Z,99.90
2023-04-06T06:14:49.835Z,99.90
2023-04-06T06:17:17.161Z,99.90
2023-04-06T06:19:46.982Z,99.90
2023-04-06T06:22:14.288Z,99.90
2023-04-06T06:24:46.276Z,99.90
2023-04-06T06:27:15.038Z,99.90
2023-04-06T06:29:42.292Z,99.90
2023-04-06T06:32:10.021Z,99.90
2023-04-06T06:34:38.295Z,99.90
2023-04-06T06:37:07.761Z,99.90
2023-04-06T06:39:37.606Z,99.90
2023-04-06T06:42:04.944Z,99.90
2023-04-06T06:44:49.334Z,99.90
2023-04-06T06:47:16.618Z,99.90
2023-04-06T06:49:45.216Z,99.90
2023-04-06T06:52:12.509Z,99.90
2023-04-06T06:54:40.096Z,99.90
2023-04-06T06:57:07.303Z,99.90
2023-04-06T06:59:34.608Z,99.90
2023-04-06T07:02:01.921Z,99.90
2023-04-06T07:04:29.202Z,99.90
2023-04-06T07:06:56.716Z,99.90
2023-04-06T07:09:23.905Z,99.90
2023-04-06T07:11:51.366Z,99.90
2023-04-06T07:14:18.630Z,99.90
2023-04-06T07:16:48.591Z,99.90
2023-04-06T07:19:16.711Z,99.90
2023-04-06T07:21:43.948Z,99.90
2023-04-06T07:24:36.771Z,99.90
2023-04-06T07:27:04.328Z,99.90
2023-04-06T07:29:31.740Z,99.90
2023-04-06T07:31:59.365Z,99.90
2023-04-06T07:34:28.032Z,98.70
2023-04-06T07:36:55.489Z,98.00
2023-04-06T07:39:23.174Z,97.00
2023-04-06T07:41:50.852Z,94.90
2023-04-06T07:44:18.095Z,90.20
2023-04-06T07:46:46.653Z,77.20
2023-04-06T07:49:14.405Z,62.10
2023-04-06T07:51:43.076Z,56.80
2023-04-06T07:54:10.299Z,53.50
2023-04-06T07:56:37.875Z,55.60
2023-04-06T07:59:05.084Z,51.20
2023-04-06T08:01:32.546Z,50.20
2023-04-06T08:04:01.239Z,48.00
2023-04-06T08:06:28.528Z,45.80
2023-04-06T08:08:55.828Z,44.80
2023-04-06T08:11:23.510Z,45.50
2023-04-06T08:13:51.086Z,44.00
2023-04-06T08:16:19.027Z,43.50
2023-04-06T08:18:46.246Z,44.20
2023-04-06T08:21:13.760Z,41.60
2023-04-06T08:23:41.069Z,41.40
2023-04-06T08:26:10.636Z,40.90
2023-04-06T08:28:37.795Z,41.50
2023-04-06T08:31:06.534Z,41.70
2023-04-06T08:33:39.914Z,41.50
2023-04-06T08:36:11.603Z,39.00
2023-04-06T08:38:39.526Z,41.10
2023-04-06T08:41:09.829Z,38.10
2023-04-06T08:43:44.764Z,37.30
2023-04-06T08:46:12.593Z,36.90
2023-04-06T08:48:41.190Z,38.00
2023-04-06T08:51:09.790Z,36.10
2023-04-06T08:53:37.759Z,34.90
2023-04-06T08:56:06.349Z,34.90
2023-04-06T08:58:40.491Z,35.50
2023-04-06T09:01:10.090Z,35.00
2023-04-06T09:03:43.057Z,35.60
2023-04-06T09:06:11.179Z,34.90
2023-04-06T09:08:41.701Z,33.90
2023-04-06T09:11:09.427Z,31.90
2023-04-06T09:13:48.461Z,32.70
2023-04-06T09:16:16.469Z,33.10
2023-04-06T09:18:43.927Z,32.30
2023-04-06T09:21:12.075Z,31.20
2023-04-06T09:23:40.809Z,32.30
2023-04-06T09:26:09.925Z,30.50
2023-04-06T09:28:51.548Z,30.90
2023-04-06T09:31:34.056Z,30.60
2023-04-06T09:34:02.620Z,31.00
2023-04-06T09:36:33.728Z,30.50
2023-04-06T09:39:03.849Z,29.80
2023-04-06T09:41:36.300Z,30.00
2023-04-06T09:44:08.865Z,29.40
2023-04-06T09:46:55.801Z,29.70
2023-04-06T09:49:31.263Z,30.00
2023-04-06T09:52:01.500Z,29.70
2023-04-06T09:54:32.846Z,29.00
2023-04-06T09:57:20.760Z,30.00
2023-04-06T10:00:12.305Z,28.80
2023-04-06T15:05:59.921Z,23.60
2023-04-06T15:08:27.614Z,28.00
2023-04-06T15:10:59.439Z,28.70
2023-04-06T15:13:27.128Z,28.80
2023-04-06T15:15:55.000Z,29.20
2023-04-06T15:18:22.241Z,29.00
2023-04-06T15:20:49.411Z,28.90
2023-04-06T15:23:17.068Z,29.60
2023-04-06T15:25:44.473Z,29.60
2023-04-06T15:28:12.085Z,30.00
2023-04-06T15:30:39.304Z,30.10
2023-04-06T15:33:08.838Z,30.00
2023-04-06T15:35:43.938Z,30.00
2023-04-06T15:38:11.528Z,31.20
2023-04-06T15:40:47.099Z,31.30
2023-04-06T15:43:14.827Z,31.40
2023-04-06T15:45:42.768Z,31.70
2023-04-06T15:48:10.323Z,32.00
2023-04-06T15:50:37.652Z,32.40
2023-04-06T15:53:05.153Z,32.30
2023-04-06T15:55:32.657Z,32.30
2023-04-06T15:57:59.916Z,33.00
2023-04-06T16:00:28.721Z,32.90
2023-04-06T16:02:57.103Z,32.40
2023-04-06T16:05:25.737Z,33.00
2023-04-06T16:07:54.834Z,33.80
2023-04-06T16:10:22.115Z,34.30
2023-04-06T16:12:49.434Z,34.80
2023-04-06T16:15:17.317Z,35.00
2023-04-06T16:17:44.647Z,35.20
2023-04-06T16:20:15.539Z,34.50
2023-04-06T16:22:43.097Z,35.00
2023-04-06T16:25:11.980Z,35.00
2023-04-06T16:27:39.684Z,35.30
2023-04-06T16:30:07.831Z,35.10
2023-04-06T16:32:35.564Z,35.40
2023-04-06T16:35:04.393Z,36.20
2023-04-06T16:37:31.790Z,36.50
2023-04-06T16:39:59.296Z,37.20
2023-04-06T16:42:27.252Z,36.80
2023-04-06T16:44:54.482Z,37.00
2023-04-06T16:47:21.679Z,37.10
2023-04-06T16:49:48.950Z,37.00
2023-04-06T16:52:17.241Z,36.90
2023-04-06T16:54:44.370Z,37.30
2023-04-06T16:59:40.099Z,36.40
2023-04-06T17:02:07.456Z,37.00
2023-04-06T17:04:37.149Z,37.30
2023-04-06T17:07:07.055Z,37.40
2023-04-06T17:09:37.530Z,37.70
2023-04-06T17:12:05.240Z,37.60
2023-04-06T17:14:32.815Z,38.00
2023-04-06T17:17:00.500Z,38.40
2023-04-06T17:19:27.770Z,39.00
2023-04-06T17:21:55.174Z,39.30
2023-04-06T17:24:22.442Z,40.20
2023-04-06T17:26:49.801Z,40.30
2023-04-06T17:29:17.029Z,40.50
2023-04-06T17:31:46.218Z,40.70
2023-04-06T17:34:13.768Z,40.80
2023-04-06T17:36:40.966Z,41.60
2023-04-06T17:39:08.659Z,41.70
2023-04-06T17:41:36.100Z,41.70
2023-04-06T17:44:03.473Z,42.10
2023-04-06T17:46:30.946Z,42.20
2023-04-06T17:48:59.499Z,42.80
2023-04-06T17:51:27.056Z,43.00
2023-04-06T17:53:54.557Z,45.10
2023-04-06T17:56:23.220Z,44.30
2023-04-06T17:58:54.911Z,45.80
2023-04-06T18:01:22.465Z,45.70
2023-04-06T18:03:49.856Z,46.20
2023-04-06T18:06:18.178Z,46.70
2023-04-06T18:08:45.557Z,47.00
2023-04-06T18:11:18.215Z,47.80
2023-04-06T18:13:46.207Z,48.20
2023-04-06T18:16:14.428Z,48.40
2023-04-06T18:18:41.843Z,48.60
2023-04-06T18:21:09.126Z,48.70
2023-04-06T18:24:40.377Z,49.20
2023-04-06T18:27:08.584Z,49.60
2023-04-06T18:29:38.198Z,50.50
2023-04-06T18:32:06.417Z,50.80
2023-04-06T18:34:34.043Z,51.00
2023-04-06T18:37:01.764Z,51.30
2023-04-06T18:39:29.390Z,51.80
2023-04-06T18:41:56.829Z,52.10
2023-04-06T18:44:24.495Z,52.50
2023-04-06T18:46:56.029Z,52.70
2023-04-06T18:49:24.022Z,53.10
2023-04-06T18:51:51.454Z,53.60
2023-04-06T18:54:18.832Z,53.80
2023-04-06T18:56:48.597Z,54.20
2023-04-06T18:59:17.334Z,54.80
2023-04-06T19:01:47.016Z,55.20
2023-04-06T19:04:14.677Z,55.40
2023-04-06T19:06:42.316Z,55.60
2023-04-06T19:09:09.947Z,55.90
2023-04-06T19:11:37.378Z,56.10
2023-04-06T19:14:05.359Z,56.40
2023-04-06T19:16:32.860Z,56.70
2023-04-06T19:19:00.659Z,56.80
2023-04-06T19:21:28.039Z,56.80
2023-04-06T19:23:55.946Z,56.80
2023-04-06T19:26:27.713Z,56.90
2023-04-06T19:28:55.036Z,56.90
2023-04-06T19:31:23.069Z,57.00
2023-04-06T19:33:50.764Z,56.90
2023-04-06T19:36:18.260Z,57.00
2023-04-06T19:38:46.038Z,57.00
2023-04-06T19:41:13.331Z,57.00
2023-04-06T19:43:40.830Z,57.00
2023-04-06T19:46:09.225Z,57.10
2023-04-06T19:48:36.725Z,57.10
2023-04-06T19:51:04.570Z,57.10
2023-04-06T19:53:31.908Z,57.10
2023-04-06T19:55:59.234Z,57.00
2023-04-06T19:58:26.537Z,57.10
2023-04-06T20:00:54.100Z,57.10
2023-04-06T20:03:21.420Z,57.20
2023-04-06T20:05:48.894Z,57.50
2023-04-06T20:08:16.519Z,57.50
2023-04-06T20:10:43.790Z,57.60
2023-04-06T20:13:11.192Z,57.60
2023-04-06T20:15:39.244Z,57.60
2023-04-06T20:18:07.625Z,57.50
2023-04-06T20:20:35.229Z,57.70
2023-04-06T20:23:02.526Z,58.00
2023-04-06T20:25:31.291Z,58.20
2023-04-06T20:27:58.555Z,58.20
2023-04-06T20:30:26.220Z,58.30
2023-04-06T20:32:53.523Z,58.40
2023-04-06T20:35:21.000Z,58.60
2023-04-06T20:38:14.600Z,58.50
2023-04-06T20:40:46.888Z,58.50
2023-04-06T20:43:14.306Z,58.70
2023-04-06T20:45:42.255Z,58.60
2023-04-06T20:48:11.383Z,58.30
2023-04-06T20:50:38.790Z,58.50
2023-04-06T20:53:06.421Z,58.90
2023-04-06T20:55:34.106Z,59.20
2023-04-06T20:58:01.309Z,59.20
2023-04-06T21:00:29.574Z,59.40
2023-04-06T21:02:57.009Z,59.60
2023-04-06T21:05:24.417Z,59.40
2023-04-06T21:07:51.636Z,59.70
2023-04-06T21:10:19.135Z,59.80
2023-04-06T21:12:46.308Z,60.20
2023-04-06T21:15:13.502Z,60.20
2023-04-06T21:17:41.510Z,60.30
2023-04-06T21:20:10.282Z,60.20
2023-04-06T21:22:39.206Z,60.70
2023-04-06T21:25:07.015Z,61.00
2023-04-06T21:27:34.584Z,61.20
2023-04-06T21:30:02.362Z,61.40
2023-04-06T21:32:29.553Z,61.50
2023-04-06T21:34:57.746Z,61.10
2023-04-06T21:37:25.000Z,60.70
2023-04-06T21:39:52.616Z,60.70
2023-04-06T21:42:19.803Z,60.70
2023-04-06T21:44:46.984Z,60.50
2023-04-06T21:47:14.228Z,60.40
2023-04-06T21:49:42.028Z,60.70
2023-04-06T21:52:09.419Z,60.70
2023-04-06T21:54:36.707Z,60.80
2023-04-06T21:57:04.044Z,61.20
2023-04-06T21:59:31.316Z,61.10
2023-04-06T22:01:58.667Z,61.00
2023-04-06T22:04:26.070Z,60.70
2023-04-06T22:06:53.460Z,60.70
2023-04-06T22:09:21.228Z,61.60
2023-04-06T22:11:48.726Z,61.00
2023-04-06T22:14:16.075Z,60.80
2023-04-06T22:16:44.234Z,60.60
2023-04-06T22:19:11.954Z,60.70
2023-04-06T22:21:39.277Z,60.90
2023-04-06T22:24:07.349Z,61.10
2023-04-06T22:26:34.563Z,61.20
2023-04-06T22:29:01.799Z,61.50
2023-04-06T22:31:28.936Z,61.50
2023-04-06T22:33:56.615Z,61.80
2023-04-06T22:36:24.507Z,62.50
2023-04-06T22:38:51.662Z,62.40
2023-04-06T22:41:19.414Z,62.30
2023-04-06T22:43:47.361Z,62.40
2023-04-06T22:46:15.022Z,62.60
2023-04-06T22:48:43.226Z,62.40
2023-04-06T22:51:10.579Z,62.40
2023-04-06T22:53:37.761Z,63.20
2023-04-06T22:56:05.394Z,63.40
2023-04-06T22:58:32.558Z,64.90
2023-04-06T23:00:59.782Z,65.90
2023-04-06T23:03:27.338Z,67.30
2023-04-06T23:05:54.602Z,68.90
2023-04-06T23:08:21.759Z,69.30
2023-04-06T23:10:50.628Z,70.70
2023-04-06T23:13:17.771Z,71.70
2023-04-06T23:15:44.941Z,72.20
2023-04-06T23:18:12.408Z,73.00
2023-04-06T23:20:40.023Z,73.40
2023-04-06T23:23:07.199Z,74.60
2023-04-06T23:25:34.330Z,74.70
2023-04-06T23:28:02.083Z,75.70
2023-04-06T23:30:29.245Z,76.00
2023-04-06T23:32:56.428Z,77.20
2023-04-06T23:35:23.719Z,78.20
2023-04-06T23:37:50.955Z,78.70
2023-04-06T23:40:18.373Z,79.80
2023-04-06T23:42:45.732Z,80.60
2023-04-06T23:45:13.531Z,81.60
2023-04-06T23:47:41.406Z,83.00
2023-04-06T23:50:10.096Z,84.10
2023-04-06T23:52:37.278Z,84.50
2023-04-06T23:55:05.813Z,85.10
2023-04-06T23:57:32.973Z,86.30
